sensor_id;sensor_type;location;lat;lon;timestamp;temperature;humidity
16871;DHT22;8552;48.120;-1.456;2023-08-12T00:00:10;19.40;99.90
16871;DHT22;8552;48.120;-1.456;2023-08-12T00:02:42;19.40;99.90
16871;DHT22;8552;48.120;-1.456;2023-08-12T00:05:09;19.40;99.90
16871;DHT22;8552;48.120;-1.456;2023-08-12T00:07:39;19.40;99.90
16871;DHT22;8552;48.120;-1.456;2023-08-12T00:10:10;19.40;99.90
16871;DHT22;8552;48.120;-1.456;2023-08-12T00:12:39;19.40;99.90
16871;DHT22;8552;48.120;-1.456;2023-08-12T00:15:05;19.40;99.90
16871;DHT22;8552;48.120;-1.456;2023-08-12T00:17:39;19.40;99.90
16871;DHT22;8552;48.120;-1.456;2023-08-12T00:20:07;19.40;99.90
16871;DHT22;8552;48.120;-1.456;2023-08-12T00:22:36;19.40;99.90
16871;DHT22;8552;48.120;-1.456;2023-08-12T00:25:02;19.40;99.90
16871;DHT22;8552;48.120;-1.456;2023-08-12T00:30:10;19.40;99.90
16871;DHT22;8552;48.120;-1.456;2023-08-12T00:33:10;19.40;99.90
16871;DHT22;8552;48.120;-1.456;2023-08-12T00:36:00;19.40;99.90
16871;DHT22;8552;48.120;-1.456;2023-08-12T00:46:20;19.40;99.90
16871;DHT22;8552;48.120;-1.456;2023-08-12T00:51:42;19.40;99.90
16871;DHT22;8552;48.120;-1.456;2023-08-12T00:54:14;19.40;99.90
16871;DHT22;8552;48.120;-1.456;2023-08-12T00:56:41;19.40;99.90
16871;DHT22;8552;48.120;-1.456;2023-08-12T00:59:09;19.40;99.90
16871;DHT22;8552;48.120;-1.456;2023-08-12T01:01:39;19.50;99.90
16871;DHT22;8552;48.120;-1.456;2023-08-12T01:04:06;19.40;99.90
16871;DHT22;8552;48.120;-1.456;2023-08-12T01:06:32;19.40;99.90
16871;DHT22;8552;48.120;-1.456;2023-08-12T01:08:59;19.40;99.90
16871;DHT22;8552;48.120;-1.456;2023-08-12T01:14:14;19.40;99.90
16871;DHT22;8552;48.120;-1.456;2023-08-12T01:16:44;19.40;99.90
16871;DHT22;8552;48.120;-1.456;2023-08-12T01:19:14;19.30;99.90
16871;DHT22;8552;48.120;-1.456;2023-08-12T01:21:44;19.30;99.90
16871;DHT22;8552;48.120;-1.456;2023-08-12T01:24:11;19.30;99.90
16871;DHT22;8552;48.120;-1.456;2023-08-12T01:26:37;19.20;99.90
16871;DHT22;8552;48.120;-1.456;2023-08-12T01:29:04;19.20;99.90
16871;DHT22;8552;48.120;-1.456;2023-08-12T01:31:45;19.20;99.90
16871;DHT22;8552;48.120;-1.456;2023-08-12T01:37:16;19.10;99.90
16871;DHT22;8552;48.120;-1.456;2023-08-12T01:39:43;19.10;99.90
16871;DHT22;8552;48.120;-1.456;2023-08-12T01:42:10;19.00;99.90
16871;DHT22;8552;48.120;-1.456;2023-08-12T01:44:40;19.00;99.90
16871;DHT22;8552;48.120;-1.456;2023-08-12T01:47:07;18.90;99.90
16871;DHT22;8552;48.120;-1.456;2023-08-12T01:49:35;18.90;99.90
16871;DHT22;8552;48.120;-1.456;2023-08-12T01:52:03;18.80;99.90
16871;DHT22;8552;48.120;-1.456;2023-08-12T01:54:33;18.80;99.90
16871;DHT22;8552;48.120;-1.456;2023-08-12T02:02:18;18.70;99.90
16871;DHT22;8552;48.120;-1.456;2023-08-12T02:04:44;18.70;99.90
16871;DHT22;8552;48.120;-1.456;2023-08-12T02:07:10;18.60;99.90
16871;DHT22;8552;48.120;-1.456;2023-08-12T02:09:36;18.60;99.90
16871;DHT22;8552;48.120;-1.456;2023-08-12T02:12:02;18.60;99.90
16871;DHT22;8552;48.120;-1.456;2023-08-12T02:14:30;18.60;99.90
16871;DHT22;8552;48.120;-1.456;2023-08-12T02:16:55;18.50;99.90
16871;DHT22;8552;48.120;-1.456;2023-08-12T02:19:22;18.40;99.90
16871;DHT22;8552;48.120;-1.456;2023-08-12T02:21:47;18.40;99.90
16871;DHT22;8552;48.120;-1.456;2023-08-12T02:24:13;18.40;99.90
16871;DHT22;8552;48.120;-1.456;2023-08-12T02:26:39;18.30;99.90
16871;DHT22;8552;48.120;-1.456;2023-08-12T02:29:05;18.30;99.90
16871;DHT22;8552;48.120;-1.456;2023-08-12T02:31:31;18.30;99.90
16871;DHT22;8552;48.120;-1.456;2023-08-12T02:33:57;18.30;99.90
16871;DHT22;8552;48.120;-1.456;2023-08-12T02:36:25;18.20;99.90
16871;DHT22;8552;48.120;-1.456;2023-08-12T02:38:52;18.20;99.90
16871;DHT22;8552;48.120;-1.456;2023-08-12T02:41:19;18.20;99.90
16871;DHT22;8552;48.120;-1.456;2023-08-12T02:43:45;18.10;99.90
16871;DHT22;8552;48.120;-1.456;2023-08-12T02:46:16;18.00;99.90
16871;DHT22;8552;48.120;-1.456;2023-08-12T02:48:45;18.00;99.90
16871;DHT22;8552;48.120;-1.456;2023-08-12T02:51:17;17.90;99.90
16871;DHT22;8552;48.120;-1.456;2023-08-12T03:02:16;17.60;99.90
16871;DHT22;8552;48.120;-1.456;2023-08-12T03:04:42;17.60;99.90
16871;DHT22;8552;48.120;-1.456;2023-08-12T03:21:36;17.50;99.90
16871;DHT22;8552;48.120;-1.456;2023-08-12T03:24:01;17.40;99.90
16871;DHT22;8552;48.120;-1.456;2023-08-12T03:26:27;17.40;99.90
16871;DHT22;8552;48.120;-1.456;2023-08-12T03:28:52;17.40;99.90
16871;DHT22;8552;48.120;-1.456;2023-08-12T03:31:18;17.30;99.90
16871;DHT22;8552;48.120;-1.456;2023-08-12T03:33:44;17.30;99.90
16871;DHT22;8552;48.120;-1.456;2023-08-12T03:36:09;17.30;99.90
16871;DHT22;8552;48.120;-1.456;2023-08-12T03:38:35;17.20;99.90
16871;DHT22;8552;48.120;-1.456;2023-08-12T03:41:02;17.20;99.90
16871;DHT22;8552;48.120;-1.456;2023-08-12T03:43:28;17.30;99.90
16871;DHT22;8552;48.120;-1.456;2023-08-12T03:45:54;17.20;99.90
16871;DHT22;8552;48.120;-1.456;2023-08-12T03:48:19;17.10;99.90
16871;DHT22;8552;48.120;-1.456;2023-08-12T03:50:45;17.10;99.90
16871;DHT22;8552;48.120;-1.456;2023-08-12T03:53:12;17.10;99.90
16871;DHT22;8552;48.120;-1.456;2023-08-12T03:55:38;17.00;99.90
16871;DHT22;8552;48.120;-1.456;2023-08-12T03:58:04;17.00;99.90
16871;DHT22;8552;48.120;-1.456;2023-08-12T04:00:30;17.00;99.90
16871;DHT22;8552;48.120;-1.456;2023-08-12T04:02:56;17.00;99.90
16871;DHT22;8552;48.120;-1.456;2023-08-12T04:05:22;16.90;99.90
16871;DHT22;8552;48.120;-1.456;2023-08-12T04:07:47;16.90;99.90
16871;DHT22;8552;48.120;-1.456;2023-08-12T04:10:13;16.90;99.90
16871;DHT22;8552;48.120;-1.456;2023-08-12T04:12:40;16.90;99.90
16871;DHT22;8552;48.120;-1.456;2023-08-12T04:15:06;16.90;99.90
16871;DHT22;8552;48.120;-1.456;2023-08-12T04:17:32;16.80;99.90
16871;DHT22;8552;48.120;-1.456;2023-08-12T04:19:58;16.80;99.90
16871;DHT22;8552;48.120;-1.456;2023-08-12T04:22:23;16.80;99.90
16871;DHT22;8552;48.120;-1.456;2023-08-12T04:24:49;16.80;99.90
16871;DHT22;8552;48.120;-1.456;2023-08-12T04:27:15;16.80;99.90
16871;DHT22;8552;48.120;-1.456;2023-08-12T04:29:42;16.80;99.90
16871;DHT22;8552;48.120;-1.456;2023-08-12T04:32:08;16.90;99.90
16871;DHT22;8552;48.120;-1.456;2023-08-12T04:34:33;16.90;99.90
16871;DHT22;8552;48.120;-1.456;2023-08-12T04:36:59;16.90;99.90
16871;DHT22;8552;48.120;-1.456;2023-08-12T04:39:25;16.90;99.90
16871;DHT22;8552;48.120;-1.456;2023-08-12T04:41:51;16.90;99.90
16871;DHT22;8552;48.120;-1.456;2023-08-12T04:44:17;16.90;99.90
16871;DHT22;8552;48.120;-1.456;2023-08-12T04:46:42;16.90;99.90
16871;DHT22;8552;48.120;-1.456;2023-08-12T04:49:08;16.90;99.90
16871;DHT22;8552;48.120;-1.456;2023-08-12T04:51:34;16.90;99.90
16871;DHT22;8552;48.120;-1.456;2023-08-12T04:54:00;16.90;99.90
16871;DHT22;8552;48.120;-1.456;2023-08-12T04:56:27;16.90;99.90
16871;DHT22;8552;48.120;-1.456;2023-08-12T04:58:55;16.90;99.90
16871;DHT22;8552;48.120;-1.456;2023-08-12T05:01:21;16.90;99.90
16871;DHT22;8552;48.120;-1.456;2023-08-12T05:03:47;16.90;99.90
16871;DHT22;8552;48.120;-1.456;2023-08-12T05:06:13;17.00;99.90
16871;DHT22;8552;48.120;-1.456;2023-08-12T05:08:38;17.00;99.90
16871;DHT22;8552;48.120;-1.456;2023-08-12T05:11:04;17.00;99.90
16871;DHT22;8552;48.120;-1.456;2023-08-12T05:13:29;17.00;99.90
16871;DHT22;8552;48.120;-1.456;2023-08-12T05:15:56;17.00;99.90
16871;DHT22;8552;48.120;-1.456;2023-08-12T05:18:22;16.90;99.90
16871;DHT22;8552;48.120;-1.456;2023-08-12T05:20:52;16.90;99.90
16871;DHT22;8552;48.120;-1.456;2023-08-12T05:23:21;16.90;99.90
16871;DHT22;8552;48.120;-1.456;2023-08-12T05:25:47;16.90;99.90
16871;DHT22;8552;48.120;-1.456;2023-08-12T05:28:13;16.80;99.90
16871;DHT22;8552;48.120;-1.456;2023-08-12T05:30:38;16.80;99.90
16871;DHT22;8552;48.120;-1.456;2023-08-12T05:33:04;16.80;99.90
16871;DHT22;8552;48.120;-1.456;2023-08-12T05:35:34;16.70;99.90
16871;DHT22;8552;48.120;-1.456;2023-08-12T05:38:00;16.70;99.90
16871;DHT22;8552;48.120;-1.456;2023-08-12T05:40:27;16.70;99.90
16871;DHT22;8552;48.120;-1.456;2023-08-12T05:42:52;16.70;99.90
16871;DHT22;8552;48.120;-1.456;2023-08-12T05:45:18;16.70;99.90
16871;DHT22;8552;48.120;-1.456;2023-08-12T05:47:44;16.70;99.90
16871;DHT22;8552;48.120;-1.456;2023-08-12T05:50:09;16.70;99.90
16871;DHT22;8552;48.120;-1.456;2023-08-12T05:52:35;16.70;99.90
16871;DHT22;8552;48.120;-1.456;2023-08-12T05:55:01;16.80;99.90
16871;DHT22;8552;48.120;-1.456;2023-08-12T05:57:27;16.80;99.90
16871;DHT22;8552;48.120;-1.456;2023-08-12T05:59:53;16.80;99.90
16871;DHT22;8552;48.120;-1.456;2023-08-12T06:02:18;16.80;99.90
16871;DHT22;8552;48.120;-1.456;2023-08-12T06:04:44;16.80;99.90
16871;DHT22;8552;48.120;-1.456;2023-08-12T06:07:10;16.80;99.90
16871;DHT22;8552;48.120;-1.456;2023-08-12T06:09:36;16.80;99.90
16871;DHT22;8552;48.120;-1.456;2023-08-12T06:12:01;16.70;99.90
16871;DHT22;8552;48.120;-1.456;2023-08-12T06:14:27;16.70;99.90
16871;DHT22;8552;48.120;-1.456;2023-08-12T06:16:53;16.70;99.90
16871;DHT22;8552;48.120;-1.456;2023-08-12T06:19:19;16.70;99.90
16871;DHT22;8552;48.120;-1.456;2023-08-12T06:21:44;16.70;99.90
16871;DHT22;8552;48.120;-1.456;2023-08-12T06:24:10;16.70;99.90
16871;DHT22;8552;48.120;-1.456;2023-08-12T06:26:36;16.70;99.90
16871;DHT22;8552;48.120;-1.456;2023-08-12T06:29:01;16.70;99.90
16871;DHT22;8552;48.120;-1.456;2023-08-12T06:31:27;16.70;99.90
16871;DHT22;8552;48.120;-1.456;2023-08-12T06:33:52;16.80;99.90
16871;DHT22;8552;48.120;-1.456;2023-08-12T06:36:18;16.80;99.90
16871;DHT22;8552;48.120;-1.456;2023-08-12T06:38:44;16.80;99.90
16871;DHT22;8552;48.120;-1.456;2023-08-12T06:41:09;16.80;99.90
16871;DHT22;8552;48.120;-1.456;2023-08-12T06:43:35;16.80;99.90
16871;DHT22;8552;48.120;-1.456;2023-08-12T06:46:01;16.80;99.90
16871;DHT22;8552;48.120;-1.456;2023-08-12T06:48:27;16.90;99.90
16871;DHT22;8552;48.120;-1.456;2023-08-12T06:50:54;16.90;99.90
16871;DHT22;8552;48.120;-1.456;2023-08-12T06:53:20;16.90;99.90
16871;DHT22;8552;48.120;-1.456;2023-08-12T06:55:46;16.90;99.90
16871;DHT22;8552;48.120;-1.456;2023-08-12T06:58:13;16.90;99.90
16871;DHT22;8552;48.120;-1.456;2023-08-12T07:00:39;16.90;99.90
16871;DHT22;8552;48.120;-1.456;2023-08-12T07:03:05;16.90;99.90
16871;DHT22;8552;48.120;-1.456;2023-08-12T07:05:30;16.90;99.90
16871;DHT22;8552;48.120;-1.456;2023-08-12T07:07:56;17.00;99.90
16871;DHT22;8552;48.120;-1.456;2023-08-12T07:10:21;17.10;99.90
16871;DHT22;8552;48.120;-1.456;2023-08-12T07:12:47;17.20;99.90
16871;DHT22;8552;48.120;-1.456;2023-08-12T07:15:13;17.00;99.90
16871;DHT22;8552;48.120;-1.456;2023-08-12T07:17:38;17.00;99.90
16871;DHT22;8552;48.120;-1.456;2023-08-12T07:20:05;17.00;99.90
16871;DHT22;8552;48.120;-1.456;2023-08-12T07:22:31;17.10;99.90
16871;DHT22;8552;48.120;-1.456;2023-08-12T07:24:57;17.10;99.90
16871;DHT22;8552;48.120;-1.456;2023-08-12T07:27:26;17.00;99.90
16871;DHT22;8552;48.120;-1.456;2023-08-12T07:29:51;17.10;99.90
16871;DHT22;8552;48.120;-1.456;2023-08-12T07:32:17;17.20;99.90
16871;DHT22;8552;48.120;-1.456;2023-08-12T07:34:44;17.20;99.90
16871;DHT22;8552;48.120;-1.456;2023-08-12T07:37:10;17.40;99.90
16871;DHT22;8552;48.120;-1.456;2023-08-12T07:39:36;17.60;99.90
16871;DHT22;8552;48.120;-1.456;2023-08-12T07:42:02;17.70;99.90
16871;DHT22;8552;48.120;-1.456;2023-08-12T07:44:28;17.80;99.90
16871;DHT22;8552;48.120;-1.456;2023-08-12T07:46:54;17.90;99.90
16871;DHT22;8552;48.120;-1.456;2023-08-12T07:49:20;17.80;99.90
16871;DHT22;8552;48.120;-1.456;2023-08-12T07:51:46;17.80;99.90
16871;DHT22;8552;48.120;-1.456;2023-08-12T07:54:12;17.90;99.90
16871;DHT22;8552;48.120;-1.456;2023-08-12T07:56:37;17.90;99.90
16871;DHT22;8552;48.120;-1.456;2023-08-12T07:59:03;17.90;99.90
16871;DHT22;8552;48.120;-1.456;2023-08-12T08:01:29;17.70;99.90
16871;DHT22;8552;48.120;-1.456;2023-08-12T08:03:55;17.70;99.90
16871;DHT22;8552;48.120;-1.456;2023-08-12T08:06:22;17.80;99.90
16871;DHT22;8552;48.120;-1.456;2023-08-12T08:08:49;17.80;99.90
16871;DHT22;8552;48.120;-1.456;2023-08-12T08:11:14;17.90;99.90
16871;DHT22;8552;48.120;-1.456;2023-08-12T08:13:40;18.00;99.90
16871;DHT22;8552;48.120;-1.456;2023-08-12T08:16:06;18.10;99.90
16871;DHT22;8552;48.120;-1.456;2023-08-12T08:18:32;18.10;99.90
16871;DHT22;8552;48.120;-1.456;2023-08-12T08:20:58;18.20;99.90
16871;DHT22;8552;48.120;-1.456;2023-08-12T08:23:23;18.50;99.90
16871;DHT22;8552;48.120;-1.456;2023-08-12T08:25:49;18.40;99.90
16871;DHT22;8552;48.120;-1.456;2023-08-12T08:28:15;18.40;99.90
16871;DHT22;8552;48.120;-1.456;2023-08-12T08:30:40;18.60;99.90
16871;DHT22;8552;48.120;-1.456;2023-08-12T08:33:06;18.60;99.90
16871;DHT22;8552;48.120;-1.456;2023-08-12T08:35:32;18.50;99.90
16871;DHT22;8552;48.120;-1.456;2023-08-12T08:37:57;18.70;99.90
16871;DHT22;8552;48.120;-1.456;2023-08-12T08:40:23;18.80;99.90
16871;DHT22;8552;48.120;-1.456;2023-08-12T08:42:52;18.80;99.90
16871;DHT22;8552;48.120;-1.456;2023-08-12T08:45:22;18.80;99.90
16871;DHT22;8552;48.120;-1.456;2023-08-12T08:47:51;18.70;99.90
16871;DHT22;8552;48.120;-1.456;2023-08-12T08:50:18;18.70;99.90
16871;DHT22;8552;48.120;-1.456;2023-08-12T08:52:44;18.90;99.90
16871;DHT22;8552;48.120;-1.456;2023-08-12T08:55:11;19.10;99.90
16871;DHT22;8552;48.120;-1.456;2023-08-12T08:57:37;19.10;99.90
16871;DHT22;8552;48.120;-1.456;2023-08-12T09:00:04;19.10;99.90
16871;DHT22;8552;48.120;-1.456;2023-08-12T09:02:33;19.20;99.90
16871;DHT22;8552;48.120;-1.456;2023-08-12T09:04:59;19.40;99.90
16871;DHT22;8552;48.120;-1.456;2023-08-12T09:07:27;19.40;99.90
16871;DHT22;8552;48.120;-1.456;2023-08-12T09:09:56;19.50;99.90
16871;DHT22;8552;48.120;-1.456;2023-08-12T09:12:24;19.70;99.90
16871;DHT22;8552;48.120;-1.456;2023-08-12T09:14:50;19.80;99.90
16871;DHT22;8552;48.120;-1.456;2023-08-12T09:17:16;20.00;99.90
16871;DHT22;8552;48.120;-1.456;2023-08-12T09:19:41;20.10;99.90
16871;DHT22;8552;48.120;-1.456;2023-08-12T09:22:08;20.30;99.90
16871;DHT22;8552;48.120;-1.456;2023-08-12T09:24:36;20.40;99.90
16871;DHT22;8552;48.120;-1.456;2023-08-12T09:27:02;20.50;99.90
16871;DHT22;8552;48.120;-1.456;2023-08-12T09:29:33;20.80;99.90
16871;DHT22;8552;48.120;-1.456;2023-08-12T09:32:34;20.90;99.90
16871;DHT22;8552;48.120;-1.456;2023-08-12T09:35:00;21.10;99.90
16871;DHT22;8552;48.120;-1.456;2023-08-12T09:37:28;21.30;99.90
16871;DHT22;8552;48.120;-1.456;2023-08-12T09:39:54;21.30;99.90
16871;DHT22;8552;48.120;-1.456;2023-08-12T09:42:20;21.40;99.90
16871;DHT22;8552;48.120;-1.456;2023-08-12T09:44:46;21.60;99.90
16871;DHT22;8552;48.120;-1.456;2023-08-12T09:47:12;21.70;99.90
16871;DHT22;8552;48.120;-1.456;2023-08-12T09:49:38;21.80;99.90
16871;DHT22;8552;48.120;-1.456;2023-08-12T09:52:05;21.90;99.90
16871;DHT22;8552;48.120;-1.456;2023-08-12T09:54:32;22.00;99.90
16871;DHT22;8552;48.120;-1.456;2023-08-12T09:56:59;22.00;99.90
16871;DHT22;8552;48.120;-1.456;2023-08-12T09:59:33;21.80;99.90
16871;DHT22;8552;48.120;-1.456;2023-08-12T10:02:05;22.00;99.90
16871;DHT22;8552;48.120;-1.456;2023-08-12T10:04:41;22.30;99.90
16871;DHT22;8552;48.120;-1.456;2023-08-12T10:07:09;22.40;99.90
16871;DHT22;8552;48.120;-1.456;2023-08-12T10:09:36;22.40;99.90
16871;DHT22;8552;48.120;-1.456;2023-08-12T10:12:06;22.50;99.90
16871;DHT22;8552;48.120;-1.456;2023-08-12T10:14:32;22.80;99.90
16871;DHT22;8552;48.120;-1.456;2023-08-12T10:16:59;23.10;99.90
16871;DHT22;8552;48.120;-1.456;2023-08-12T10:19:26;23.40;99.90
16871;DHT22;8552;48.120;-1.456;2023-08-12T10:21:56;23.50;99.90
16871;DHT22;8552;48.120;-1.456;2023-08-12T10:24:27;23.40;99.90
16871;DHT22;8552;48.120;-1.456;2023-08-12T10:26:53;23.00;99.90
16871;DHT22;8552;48.120;-1.456;2023-08-12T10:29:20;23.10;99.90
16871;DHT22;8552;48.120;-1.456;2023-08-12T10:31:47;23.30;99.90
16871;DHT22;8552;48.120;-1.456;2023-08-12T10:34:39;23.40;99.90
16871;DHT22;8552;48.120;-1.456;2023-08-12T10:37:05;23.70;99.90
16871;DHT22;8552;48.120;-1.456;2023-08-12T10:39:33;23.80;99.90
16871;DHT22;8552;48.120;-1.456;2023-08-12T10:41:59;23.80;99.90
16871;DHT22;8552;48.120;-1.456;2023-08-12T10:44:50;24.00;99.90
16871;DHT22;8552;48.120;-1.456;2023-08-12T10:47:17;24.20;99.90
16871;DHT22;8552;48.120;-1.456;2023-08-12T10:49:44;24.30;99.90
16871;DHT22;8552;48.120;-1.456;2023-08-12T10:52:33;24.50;99.90
16871;DHT22;8552;48.120;-1.456;2023-08-12T10:57:50;24.80;99.90
16871;DHT22;8552;48.120;-1.456;2023-08-12T11:00:17;24.90;99.90
16871;DHT22;8552;48.120;-1.456;2023-08-12T11:02:55;24.70;99.90
16871;DHT22;8552;48.120;-1.456;2023-08-12T11:05:22;24.70;99.90
16871;DHT22;8552;48.120;-1.456;2023-08-12T11:07:49;25.10;99.90
16871;DHT22;8552;48.120;-1.456;2023-08-12T11:10:25;24.60;99.90
16871;DHT22;8552;48.120;-1.456;2023-08-12T11:15:33;24.20;99.90
16871;DHT22;8552;48.120;-1.456;2023-08-12T11:18:07;24.00;99.90
16871;DHT22;8552;48.120;-1.456;2023-08-12T11:20:34;23.90;99.90
16871;DHT22;8552;48.120;-1.456;2023-08-12T11:23:00;24.00;99.90
16871;DHT22;8552;48.120;-1.456;2023-08-12T11:25:30;24.50;99.90
16871;DHT22;8552;48.120;-1.456;2023-08-12T11:27:57;24.80;99.90
16871;DHT22;8552;48.120;-1.456;2023-08-12T11:30:28;25.00;99.90
16871;DHT22;8552;48.120;-1.456;2023-08-12T11:32:54;24.80;99.90
16871;DHT22;8552;48.120;-1.456;2023-08-12T11:35:26;25.00;99.90
16871;DHT22;8552;48.120;-1.456;2023-08-12T11:37:54;25.20;99.90
16871;DHT22;8552;48.120;-1.456;2023-08-12T11:40:24;25.50;99.90
16871;DHT22;8552;48.120;-1.456;2023-08-12T11:42:51;25.70;99.90
16871;DHT22;8552;48.120;-1.456;2023-08-12T11:45:22;25.80;99.90
16871;DHT22;8552;48.120;-1.456;2023-08-12T11:47:48;25.40;99.90
16871;DHT22;8552;48.120;-1.456;2023-08-12T11:50:21;25.40;99.90
16871;DHT22;8552;48.120;-1.456;2023-08-12T11:52:52;25.20;99.90
16871;DHT22;8552;48.120;-1.456;2023-08-12T11:55:18;25.00;99.40
16871;DHT22;8552;48.120;-1.456;2023-08-12T11:57:49;24.90;99.90
16871;DHT22;8552;48.120;-1.456;2023-08-12T12:00:18;24.90;99.70
16871;DHT22;8552;48.120;-1.456;2023-08-12T12:02:57;24.70;99.90
16871;DHT22;8552;48.120;-1.456;2023-08-12T12:05:26;24.70;99.90
16871;DHT22;8552;48.120;-1.456;2023-08-12T12:07:52;24.60;98.90
16871;DHT22;8552;48.120;-1.456;2023-08-12T12:10:25;24.40;98.90
16871;DHT22;8552;48.120;-1.456;2023-08-12T12:12:54;24.30;98.60
16871;DHT22;8552;48.120;-1.456;2023-08-12T12:15:20;24.10;99.90
16871;DHT22;8552;48.120;-1.456;2023-08-12T12:17:50;24.00;99.90
16871;DHT22;8552;48.120;-1.456;2023-08-12T12:20:16;24.50;99.90
16871;DHT22;8552;48.120;-1.456;2023-08-12T12:22:43;25.00;99.90
16871;DHT22;8552;48.120;-1.456;2023-08-12T12:25:14;25.20;99.20
16871;DHT22;8552;48.120;-1.456;2023-08-12T12:27:42;25.20;98.20
16871;DHT22;8552;48.120;-1.456;2023-08-12T12:30:09;25.10;97.30
16871;DHT22;8552;48.120;-1.456;2023-08-12T12:32:35;25.00;97.80
16871;DHT22;8552;48.120;-1.456;2023-08-12T12:35:04;25.10;99.30
16871;DHT22;8552;48.120;-1.456;2023-08-12T12:37:36;25.30;96.90
16871;DHT22;8552;48.120;-1.456;2023-08-12T12:40:02;25.00;97.10
16871;DHT22;8552;48.120;-1.456;2023-08-12T12:42:29;25.00;95.70
16871;DHT22;8552;48.120;-1.456;2023-08-12T12:44:54;24.90;96.50
16871;DHT22;8552;48.120;-1.456;2023-08-12T12:47:21;24.70;97.60
16871;DHT22;8552;48.120;-1.456;2023-08-12T12:49:49;24.50;95.10
16871;DHT22;8552;48.120;-1.456;2023-08-12T12:52:14;24.70;97.30
16871;DHT22;8552;48.120;-1.456;2023-08-12T12:54:40;24.90;97.40
16871;DHT22;8552;48.120;-1.456;2023-08-12T12:57:06;25.40;97.50
16871;DHT22;8552;48.120;-1.456;2023-08-12T12:59:32;26.20;96.90
16871;DHT22;8552;48.120;-1.456;2023-08-12T13:01:57;26.10;94.30
16871;DHT22;8552;48.120;-1.456;2023-08-12T13:04:23;26.10;94.30
16871;DHT22;8552;48.120;-1.456;2023-08-12T13:06:49;26.10;93.50
16871;DHT22;8552;48.120;-1.456;2023-08-12T13:09:17;26.40;94.10
16871;DHT22;8552;48.120;-1.456;2023-08-12T13:11:43;26.40;92.50
16871;DHT22;8552;48.120;-1.456;2023-08-12T13:14:09;26.70;93.30
16871;DHT22;8552;48.120;-1.456;2023-08-12T13:16:35;26.70;91.30
16871;DHT22;8552;48.120;-1.456;2023-08-12T13:19:00;26.90;92.70
16871;DHT22;8552;48.120;-1.456;2023-08-12T13:21:27;27.20;92.10
16871;DHT22;8552;48.120;-1.456;2023-08-12T13:23:53;27.20;92.60
16871;DHT22;8552;48.120;-1.456;2023-08-12T13:26:20;26.90;90.90
16871;DHT22;8552;48.120;-1.456;2023-08-12T13:28:46;26.60;90.50
16871;DHT22;8552;48.120;-1.456;2023-08-12T13:31:12;26.70;90.70
16871;DHT22;8552;48.120;-1.456;2023-08-12T13:33:38;26.70;91.30
16871;DHT22;8552;48.120;-1.456;2023-08-12T13:36:04;26.90;92.90
16871;DHT22;8552;48.120;-1.456;2023-08-12T13:38:29;26.80;90.20
16871;DHT22;8552;48.120;-1.456;2023-08-12T13:40:55;26.90;91.00
16871;DHT22;8552;48.120;-1.456;2023-08-12T13:43:21;26.60;90.40
16871;DHT22;8552;48.120;-1.456;2023-08-12T13:45:47;26.50;90.90
16871;DHT22;8552;48.120;-1.456;2023-08-12T13:48:12;26.60;90.30
16871;DHT22;8552;48.120;-1.456;2023-08-12T13:50:38;26.60;89.60
16871;DHT22;8552;48.120;-1.456;2023-08-12T13:53:04;26.70;91.10
16871;DHT22;8552;48.120;-1.456;2023-08-12T13:55:29;26.30;90.20
16871;DHT22;8552;48.120;-1.456;2023-08-12T13:57:55;26.10;89.50
16871;DHT22;8552;48.120;-1.456;2023-08-12T14:00:21;26.10;88.00
16871;DHT22;8552;48.120;-1.456;2023-08-12T14:02:47;26.10;87.60
16871;DHT22;8552;48.120;-1.456;2023-08-12T14:05:14;26.20;86.90
16871;DHT22;8552;48.120;-1.456;2023-08-12T14:07:40;26.10;86.60
16871;DHT22;8552;48.120;-1.456;2023-08-12T14:10:07;26.10;89.20
16871;DHT22;8552;48.120;-1.456;2023-08-12T14:12:33;26.20;90.10
16871;DHT22;8552;48.120;-1.456;2023-08-12T14:14:59;26.40;90.50
16871;DHT22;8552;48.120;-1.456;2023-08-12T14:17:25;26.50;90.30
16871;DHT22;8552;48.120;-1.456;2023-08-12T14:19:51;26.50;90.10
16871;DHT22;8552;48.120;-1.456;2023-08-12T14:22:19;26.30;88.40
16871;DHT22;8552;48.120;-1.456;2023-08-12T14:24:44;26.30;89.70
16871;DHT22;8552;48.120;-1.456;2023-08-12T14:27:11;26.40;89.20
16871;DHT22;8552;48.120;-1.456;2023-08-12T14:29:37;26.20;89.60
16871;DHT22;8552;48.120;-1.456;2023-08-12T14:32:02;25.80;89.20
16871;DHT22;8552;48.120;-1.456;2023-08-12T14:34:28;25.70;90.10
16871;DHT22;8552;48.120;-1.456;2023-08-12T14:36:54;25.80;91.10
16871;DHT22;8552;48.120;-1.456;2023-08-12T14:39:19;25.90;89.20
16871;DHT22;8552;48.120;-1.456;2023-08-12T14:41:47;25.90;90.20
16871;DHT22;8552;48.120;-1.456;2023-08-12T14:44:14;25.60;90.30
16871;DHT22;8552;48.120;-1.456;2023-08-12T14:46:40;25.50;91.50
16871;DHT22;8552;48.120;-1.456;2023-08-12T14:49:06;25.30;90.00
16871;DHT22;8552;48.120;-1.456;2023-08-12T14:51:31;25.20;90.70
16871;DHT22;8552;48.120;-1.456;2023-08-12T14:53:57;25.10;90.40
16871;DHT22;8552;48.120;-1.456;2023-08-12T14:56:23;25.40;91.20
16871;DHT22;8552;48.120;-1.456;2023-08-12T14:58:49;25.40;90.40
16871;DHT22;8552;48.120;-1.456;2023-08-12T15:01:14;25.30;90.80
16871;DHT22;8552;48.120;-1.456;2023-08-12T15:03:41;25.20;91.30
16871;DHT22;8552;48.120;-1.456;2023-08-12T15:06:07;25.10;91.10
16871;DHT22;8552;48.120;-1.456;2023-08-12T15:08:33;25.00;90.40
16871;DHT22;8552;48.120;-1.456;2023-08-12T15:10:59;24.90;89.60
16871;DHT22;8552;48.120;-1.456;2023-08-12T15:13:25;25.00;90.40
16871;DHT22;8552;48.120;-1.456;2023-08-12T15:15:51;25.00;90.10
16871;DHT22;8552;48.120;-1.456;2023-08-12T15:18:17;24.90;91.00
16871;DHT22;8552;48.120;-1.456;2023-08-12T15:20:43;24.70;91.00
16871;DHT22;8552;48.120;-1.456;2023-08-12T15:23:09;24.90;91.90
16871;DHT22;8552;48.120;-1.456;2023-08-12T15:25:35;24.90;91.70
16871;DHT22;8552;48.120;-1.456;2023-08-12T15:28:01;24.90;91.70
16871;DHT22;8552;48.120;-1.456;2023-08-12T15:30:28;24.70;91.10
16871;DHT22;8552;48.120;-1.456;2023-08-12T15:32:54;24.60;91.10
16871;DHT22;8552;48.120;-1.456;2023-08-12T15:35:20;24.60;91.70
16871;DHT22;8552;48.120;-1.456;2023-08-12T15:37:46;24.50;90.10
16871;DHT22;8552;48.120;-1.456;2023-08-12T15:40:12;24.30;91.00
16871;DHT22;8552;48.120;-1.456;2023-08-12T15:42:39;24.20;90.50
16871;DHT22;8552;48.120;-1.456;2023-08-12T15:45:05;24.20;90.90
16871;DHT22;8552;48.120;-1.456;2023-08-12T15:47:31;24.40;90.80
16871;DHT22;8552;48.120;-1.456;2023-08-12T15:49:58;24.40;90.50
16871;DHT22;8552;48.120;-1.456;2023-08-12T15:52:24;24.40;90.50
16871;DHT22;8552;48.120;-1.456;2023-08-12T15:54:50;24.40;90.80
16871;DHT22;8552;48.120;-1.456;2023-08-12T15:57:15;24.40;90.60
16871;DHT22;8552;48.120;-1.456;2023-08-12T15:59:41;24.50;91.50
16871;DHT22;8552;48.120;-1.456;2023-08-12T16:02:08;24.40;91.90
16871;DHT22;8552;48.120;-1.456;2023-08-12T16:04:34;24.30;91.60
16871;DHT22;8552;48.120;-1.456;2023-08-12T16:06:59;24.20;92.10
16871;DHT22;8552;48.120;-1.456;2023-08-12T16:09:25;24.20;92.40
16871;DHT22;8552;48.120;-1.456;2023-08-12T16:11:51;24.20;92.60
16871;DHT22;8552;48.120;-1.456;2023-08-12T16:14:17;23.90;93.10
16871;DHT22;8552;48.120;-1.456;2023-08-12T16:16:42;23.90;94.40
16871;DHT22;8552;48.120;-1.456;2023-08-12T16:19:08;23.70;94.30
16871;DHT22;8552;48.120;-1.456;2023-08-12T16:21:34;23.70;95.10